Terminal Aerodrome Forecast
Issued by NWS

Home | Current Version | Previous Version | Text Only | Print | Product List | Glossary On
Versions: 1 2 3 4 5 6 7 8 9 10 11 12 13 14 15 16 17 18 19 20 21 22 23 24 25 26 27 28 29 30 31 32 33 34 35 36 37 38 39 40 41 42
000
FTUS43 KDTX 271132
TAFPTK
TAF
KPTK 271132Z 2712/2812 33013G20KT 6SM -SN BKN025 OVC045
     FM271500 36013G20KT P6SM BKN050
     FM271900 36010KT 6SM -SHSN OVC035
     FM280200 34006KT P6SM OVC025=

USA.gov is the U.S. government's official web portal to all federal, state and local government web resources and services.